sensor_id;sensor_type;location;lat;lon;timestamp;P1;durP1;ratioP1;P2;durP2;ratioP2
25982;SDS011;13773;48.868;10.730;2022-08-11T00:00:35;4.13;;;2.60;;
25982;SDS011;13773;48.868;10.730;2022-08-11T00:03:07;3.17;;;2.30;;
25982;SDS011;13773;48.868;10.730;2022-08-11T00:05:51;2.40;;;2.17;;
25982;SDS011;13773;48.868;10.730;2022-08-11T00:08:22;3.87;;;2.43;;
25982;SDS011;13773;48.868;10.730;2022-08-11T00:11:02;3.87;;;2.30;;
25982;SDS011;13773;48.868;10.730;2022-08-11T00:13:36;2.60;;;2.40;;
25982;SDS011;13773;48.868;10.730;2022-08-11T00:16:09;3.57;;;2.60;;
25982;SDS011;13773;48.868;10.730;2022-08-11T00:18:45;2.40;;;2.10;;
25982;SDS011;13773;48.868;10.730;2022-08-11T00:21:13;4.33;;;2.53;;
25982;SDS011;13773;48.868;10.730;2022-08-11T00:23:41;4.57;;;2.60;;
25982;SDS011;13773;48.868;10.730;2022-08-11T00:26:16;3.73;;;2.40;;
25982;SDS011;13773;48.868;10.730;2022-08-11T00:28:43;2.50;;;2.00;;
25982;SDS011;13773;48.868;10.730;2022-08-11T00:31:28;4.67;;;2.27;;
25982;SDS011;13773;48.868;10.730;2022-08-11T00:33:56;2.43;;;2.10;;
25982;SDS011;13773;48.868;10.730;2022-08-11T00:36:26;3.53;;;2.57;;
25982;SDS011;13773;48.868;10.730;2022-08-11T00:39:03;4.07;;;2.40;;
25982;SDS011;13773;48.868;10.730;2022-08-11T00:41:40;3.10;;;2.70;;
25982;SDS011;13773;48.868;10.730;2022-08-11T00:47:17;4.00;;;2.30;;
25982;SDS011;13773;48.868;10.730;2022-08-11T00:50:07;3.70;;;2.40;;
25982;SDS011;13773;48.868;10.730;2022-08-11T00:53:11;3.30;;;2.53;;
25982;SDS011;13773;48.868;10.730;2022-08-11T01:02:08;5.87;;;2.33;;
25982;SDS011;13773;48.868;10.730;2022-08-11T01:13:45;3.43;;;2.53;;
25982;SDS011;13773;48.868;10.730;2022-08-11T01:16:57;5.30;;;2.60;;
25982;SDS011;13773;48.868;10.730;2022-08-11T01:47:55;2.97;;;2.47;;
25982;SDS011;13773;48.868;10.730;2022-08-11T01:50:51;3.43;;;2.30;;
25982;SDS011;13773;48.868;10.730;2022-08-11T01:53:35;4.40;;;2.40;;
25982;SDS011;13773;48.868;10.730;2022-08-11T02:01:46;3.20;;;2.60;;
25982;SDS011;13773;48.868;10.730;2022-08-11T02:04:33;3.03;;;2.50;;
25982;SDS011;13773;48.868;10.730;2022-08-11T02:07:37;3.40;;;2.20;;
25982;SDS011;13773;48.868;10.730;2022-08-11T02:13:31;2.93;;;2.50;;
25982;SDS011;13773;48.868;10.730;2022-08-11T02:16:09;3.47;;;2.70;;
25982;SDS011;13773;48.868;10.730;2022-08-11T02:18:44;2.60;;;2.20;;
25982;SDS011;13773;48.868;10.730;2022-08-11T02:21:43;3.47;;;2.53;;
25982;SDS011;13773;48.868;10.730;2022-08-11T02:24:34;2.73;;;2.30;;
25982;SDS011;13773;48.868;10.730;2022-08-11T02:27:43;3.00;;;2.70;;
25982;SDS011;13773;48.868;10.730;2022-08-11T02:30:14;3.23;;;2.60;;
25982;SDS011;13773;48.868;10.730;2022-08-11T02:32:54;3.07;;;2.40;;
25982;SDS011;13773;48.868;10.730;2022-08-11T02:36:09;3.93;;;2.50;;
25982;SDS011;13773;48.868;10.730;2022-08-11T02:44:30;2.97;;;2.70;;
25982;SDS011;13773;48.868;10.730;2022-08-11T02:56:40;3.47;;;2.40;;
25982;SDS011;13773;48.868;10.730;2022-08-11T02:59:23;2.57;;;2.37;;
25982;SDS011;13773;48.868;10.730;2022-08-11T03:12:46;2.90;;;2.50;;
25982;SDS011;13773;48.868;10.730;2022-08-11T03:18:44;5.73;;;2.60;;
25982;SDS011;13773;48.868;10.730;2022-08-11T03:21:41;3.33;;;2.63;;
25982;SDS011;13773;48.868;10.730;2022-08-11T03:38:42;4.30;;;3.17;;
25982;SDS011;13773;48.868;10.730;2022-08-11T03:50:00;3.17;;;2.97;;
25982;SDS011;13773;48.868;10.730;2022-08-11T04:06:16;4.73;;;3.17;;
25982;SDS011;13773;48.868;10.730;2022-08-11T04:15:03;2.80;;;2.43;;
25982;SDS011;13773;48.868;10.730;2022-08-11T04:31:36;4.00;;;3.10;;
25982;SDS011;13773;48.868;10.730;2022-08-11T04:46:14;3.00;;;2.73;;
25982;SDS011;13773;48.868;10.730;2022-08-11T05:13:31;2.97;;;2.63;;
25982;SDS011;13773;48.868;10.730;2022-08-11T05:16:29;4.47;;;3.17;;
25982;SDS011;13773;48.868;10.730;2022-08-11T05:19:30;4.30;;;3.10;;
25982;SDS011;13773;48.868;10.730;2022-08-11T05:22:14;4.17;;;2.97;;
25982;SDS011;13773;48.868;10.730;2022-08-11T05:27:58;4.13;;;3.10;;
25982;SDS011;13773;48.868;10.730;2022-08-11T05:30:54;6.23;;;3.00;;
25982;SDS011;13773;48.868;10.730;2022-08-11T05:33:49;4.83;;;3.03;;
25982;SDS011;13773;48.868;10.730;2022-08-11T05:36:50;3.17;;;2.50;;
25982;SDS011;13773;48.868;10.730;2022-08-11T05:39:29;2.67;;;2.47;;
25982;SDS011;13773;48.868;10.730;2022-08-11T05:42:16;4.43;;;2.87;;
25982;SDS011;13773;48.868;10.730;2022-08-11T05:45:09;4.27;;;3.20;;
25982;SDS011;13773;48.868;10.730;2022-08-11T05:47:56;4.07;;;3.07;;
25982;SDS011;13773;48.868;10.730;2022-08-11T05:50:42;3.40;;;3.10;;
25982;SDS011;13773;48.868;10.730;2022-08-11T05:53:49;3.00;;;2.70;;
25982;SDS011;13773;48.868;10.730;2022-08-11T05:56:41;5.07;;;2.50;;
25982;SDS011;13773;48.868;10.730;2022-08-11T05:59:26;4.23;;;2.60;;
25982;SDS011;13773;48.868;10.730;2022-08-11T06:01:52;3.47;;;2.60;;
25982;SDS011;13773;48.868;10.730;2022-08-11T06:04:29;4.53;;;2.70;;
25982;SDS011;13773;48.868;10.730;2022-08-11T06:06:57;4.23;;;2.77;;
25982;SDS011;13773;48.868;10.730;2022-08-11T06:09:32;4.77;;;3.10;;
25982;SDS011;13773;48.868;10.730;2022-08-11T06:12:03;5.27;;;2.50;;
25982;SDS011;13773;48.868;10.730;2022-08-11T06:14:31;4.10;;;2.70;;
25982;SDS011;13773;48.868;10.730;2022-08-11T06:16:59;4.80;;;2.73;;
25982;SDS011;13773;48.868;10.730;2022-08-11T06:19:34;4.43;;;2.57;;
25982;SDS011;13773;48.868;10.730;2022-08-11T06:22:04;4.90;;;2.93;;
25982;SDS011;13773;48.868;10.730;2022-08-11T06:24:32;6.43;;;3.20;;
25982;SDS011;13773;48.868;10.730;2022-08-11T06:27:00;5.80;;;2.77;;
25982;SDS011;13773;48.868;10.730;2022-08-11T06:29:30;4.90;;;2.50;;
25982;SDS011;13773;48.868;10.730;2022-08-11T06:31:59;3.53;;;2.83;;
25982;SDS011;13773;48.868;10.730;2022-08-11T06:37:29;5.40;;;2.53;;
25982;SDS011;13773;48.868;10.730;2022-08-11T06:48:23;3.97;;;2.73;;
25982;SDS011;13773;48.868;10.730;2022-08-11T06:50:53;3.23;;;2.60;;
25982;SDS011;13773;48.868;10.730;2022-08-11T06:56:36;3.87;;;3.07;;
25982;SDS011;13773;48.868;10.730;2022-08-11T06:59:21;4.97;;;2.73;;
25982;SDS011;13773;48.868;10.730;2022-08-11T07:02:07;4.27;;;2.83;;
25982;SDS011;13773;48.868;10.730;2022-08-11T07:04:55;4.20;;;2.47;;
25982;SDS011;13773;48.868;10.730;2022-08-11T07:13:48;2.80;;;2.50;;
25982;SDS011;13773;48.868;10.730;2022-08-11T07:16:36;2.47;;;2.27;;
25982;SDS011;13773;48.868;10.730;2022-08-11T07:19:06;5.23;;;2.50;;
25982;SDS011;13773;48.868;10.730;2022-08-11T07:21:51;3.97;;;2.30;;
25982;SDS011;13773;48.868;10.730;2022-08-11T07:24:39;4.20;;;2.53;;
25982;SDS011;13773;48.868;10.730;2022-08-11T07:27:30;3.63;;;2.77;;
25982;SDS011;13773;48.868;10.730;2022-08-11T07:30:24;2.53;;;2.33;;
25982;SDS011;13773;48.868;10.730;2022-08-11T07:32:51;3.73;;;2.43;;
25982;SDS011;13773;48.868;10.730;2022-08-11T07:35:41;2.57;;;2.30;;
25982;SDS011;13773;48.868;10.730;2022-08-11T07:38:33;3.37;;;2.40;;
25982;SDS011;13773;48.868;10.730;2022-08-11T07:41:18;3.63;;;2.40;;
25982;SDS011;13773;48.868;10.730;2022-08-11T07:44:00;3.53;;;2.13;;
25982;SDS011;13773;48.868;10.730;2022-08-11T07:46:40;5.47;;;2.40;;
25982;SDS011;13773;48.868;10.730;2022-08-11T07:49:27;3.07;;;2.40;;
25982;SDS011;13773;48.868;10.730;2022-08-11T07:52:14;5.57;;;2.63;;
25982;SDS011;13773;48.868;10.730;2022-08-11T07:55:16;6.87;;;2.43;;
25982;SDS011;13773;48.868;10.730;2022-08-11T07:57:45;4.93;;;2.23;;
25982;SDS011;13773;48.868;10.730;2022-08-11T08:00:37;2.83;;;2.27;;
25982;SDS011;13773;48.868;10.730;2022-08-11T08:03:25;4.20;;;2.20;;
25982;SDS011;13773;48.868;10.730;2022-08-11T08:06:12;4.43;;;2.83;;
25982;SDS011;13773;48.868;10.730;2022-08-11T08:08:57;4.03;;;2.40;;
25982;SDS011;13773;48.868;10.730;2022-08-11T08:11:42;4.30;;;2.37;;
25982;SDS011;13773;48.868;10.730;2022-08-11T08:14:27;5.03;;;2.30;;
25982;SDS011;13773;48.868;10.730;2022-08-11T08:17:12;2.37;;;2.17;;
25982;SDS011;13773;48.868;10.730;2022-08-11T08:19:57;2.37;;;2.10;;
25982;SDS011;13773;48.868;10.730;2022-08-11T08:22:23;2.43;;;2.20;;
25982;SDS011;13773;48.868;10.730;2022-08-11T08:24:49;3.63;;;2.00;;
25982;SDS011;13773;48.868;10.730;2022-08-11T08:27:16;3.33;;;1.90;;
25982;SDS011;13773;48.868;10.730;2022-08-11T08:29:44;2.33;;;2.13;;
25982;SDS011;13773;48.868;10.730;2022-08-11T08:32:29;4.27;;;2.33;;
25982;SDS011;13773;48.868;10.730;2022-08-11T08:34:56;2.67;;;2.20;;
25982;SDS011;13773;48.868;10.730;2022-08-11T08:37:23;3.23;;;1.80;;
25982;SDS011;13773;48.868;10.730;2022-08-11T08:39:53;2.33;;;2.13;;
25982;SDS011;13773;48.868;10.730;2022-08-11T08:42:24;3.93;;;2.30;;
25982;SDS011;13773;48.868;10.730;2022-08-11T08:44:57;2.40;;;2.20;;
25982;SDS011;13773;48.868;10.730;2022-08-11T08:47:27;2.07;;;1.90;;
25982;SDS011;13773;48.868;10.730;2022-08-11T08:50:03;3.47;;;2.20;;
25982;SDS011;13773;48.868;10.730;2022-08-11T08:52:36;2.90;;;2.60;;
25982;SDS011;13773;48.868;10.730;2022-08-11T08:55:04;3.27;;;2.03;;
25982;SDS011;13773;48.868;10.730;2022-08-11T08:57:32;2.63;;;2.13;;
25982;SDS011;13773;48.868;10.730;2022-08-11T09:00:00;2.70;;;2.30;;
25982;SDS011;13773;48.868;10.730;2022-08-11T09:02:28;2.50;;;2.30;;
25982;SDS011;13773;48.868;10.730;2022-08-11T09:04:54;2.70;;;2.20;;
25982;SDS011;13773;48.868;10.730;2022-08-11T09:07:22;4.13;;;2.30;;
25982;SDS011;13773;48.868;10.730;2022-08-11T09:09:53;2.10;;;1.90;;
25982;SDS011;13773;48.868;10.730;2022-08-11T09:12:25;2.97;;;1.93;;
25982;SDS011;13773;48.868;10.730;2022-08-11T09:14:53;2.90;;;2.00;;
25982;SDS011;13773;48.868;10.730;2022-08-11T09:17:41;2.97;;;2.00;;
25982;SDS011;13773;48.868;10.730;2022-08-11T09:20:26;2.53;;;1.70;;
25982;SDS011;13773;48.868;10.730;2022-08-11T09:22:58;6.57;;;2.10;;
25982;SDS011;13773;48.868;10.730;2022-08-11T09:25:45;4.10;;;2.27;;
25982;SDS011;13773;48.868;10.730;2022-08-11T09:28:29;2.67;;;2.13;;
25982;SDS011;13773;48.868;10.730;2022-08-11T09:30:57;2.70;;;1.90;;
25982;SDS011;13773;48.868;10.730;2022-08-11T09:33:25;3.47;;;2.07;;
25982;SDS011;13773;48.868;10.730;2022-08-11T09:35:53;2.70;;;2.30;;
25982;SDS011;13773;48.868;10.730;2022-08-11T09:38:21;3.53;;;2.30;;
25982;SDS011;13773;48.868;10.730;2022-08-11T09:41:08;3.23;;;1.70;;
25982;SDS011;13773;48.868;10.730;2022-08-11T09:43:38;3.33;;;2.17;;
25982;SDS011;13773;48.868;10.730;2022-08-11T09:46:26;2.20;;;1.87;;
25982;SDS011;13773;48.868;10.730;2022-08-11T09:48:53;2.90;;;1.80;;
25982;SDS011;13773;48.868;10.730;2022-08-11T09:51:23;4.57;;;2.00;;
25982;SDS011;13773;48.868;10.730;2022-08-11T09:53:50;2.37;;;1.80;;
25982;SDS011;13773;48.868;10.730;2022-08-11T09:56:17;2.40;;;1.73;;
25982;SDS011;13773;48.868;10.730;2022-08-11T09:59:05;4.00;;;2.17;;
25982;SDS011;13773;48.868;10.730;2022-08-11T10:01:51;2.67;;;1.77;;
25982;SDS011;13773;48.868;10.730;2022-08-11T10:04:24;2.47;;;1.80;;
25982;SDS011;13773;48.868;10.730;2022-08-11T10:06:57;1.90;;;1.70;;
25982;SDS011;13773;48.868;10.730;2022-08-11T10:09:35;3.43;;;2.07;;
25982;SDS011;13773;48.868;10.730;2022-08-11T10:12:05;2.63;;;1.90;;
25982;SDS011;13773;48.868;10.730;2022-08-11T10:14:54;1.60;;;1.50;;
25982;SDS011;13773;48.868;10.730;2022-08-11T10:17:42;4.33;;;2.07;;
25982;SDS011;13773;48.868;10.730;2022-08-11T10:20:31;2.20;;;1.80;;
25982;SDS011;13773;48.868;10.730;2022-08-11T10:22:59;4.23;;;2.10;;
25982;SDS011;13773;48.868;10.730;2022-08-11T10:25:45;2.50;;;1.87;;
25982;SDS011;13773;48.868;10.730;2022-08-11T10:28:30;3.23;;;1.90;;
25982;SDS011;13773;48.868;10.730;2022-08-11T10:30:57;2.77;;;2.03;;
25982;SDS011;13773;48.868;10.730;2022-08-11T10:33:45;2.73;;;1.73;;
25982;SDS011;13773;48.868;10.730;2022-08-11T10:36:25;3.23;;;1.73;;
25982;SDS011;13773;48.868;10.730;2022-08-11T10:38:52;3.30;;;2.10;;
25982;SDS011;13773;48.868;10.730;2022-08-11T10:41:19;2.33;;;2.13;;
25982;SDS011;13773;48.868;10.730;2022-08-11T10:44:07;2.60;;;1.77;;
25982;SDS011;13773;48.868;10.730;2022-08-11T10:46:36;3.30;;;1.97;;
25982;SDS011;13773;48.868;10.730;2022-08-11T10:49:21;2.10;;;1.60;;
25982;SDS011;13773;48.868;10.730;2022-08-11T10:51:49;2.20;;;2.00;;
25982;SDS011;13773;48.868;10.730;2022-08-11T10:54:34;2.45;;;1.70;;
25982;SDS011;13773;48.868;10.730;2022-08-11T10:57:20;2.45;;;1.70;;
25982;SDS011;13773;48.868;10.730;2022-08-11T11:00:05;2.97;;;1.60;;
25982;SDS011;13773;48.868;10.730;2022-08-11T11:02:33;1.93;;;1.83;;
25982;SDS011;13773;48.868;10.730;2022-08-11T11:05:08;4.10;;;1.87;;
25982;SDS011;13773;48.868;10.730;2022-08-11T11:10:16;3.38;;;1.90;;
25982;SDS011;13773;48.868;10.730;2022-08-11T11:12:43;3.43;;;2.00;;
25982;SDS011;13773;48.868;10.730;2022-08-11T11:15:30;2.47;;;2.03;;
25982;SDS011;13773;48.868;10.730;2022-08-11T11:18:18;2.95;;;1.70;;
25982;SDS011;13773;48.868;10.730;2022-08-11T11:37:41;4.30;;;1.83;;
25982;SDS011;13773;48.868;10.730;2022-08-11T11:40:13;1.88;;;1.70;;
25982;SDS011;13773;48.868;10.730;2022-08-11T11:42:43;2.50;;;1.60;;
25982;SDS011;13773;48.868;10.730;2022-08-11T11:45:10;1.88;;;1.67;;
25982;SDS011;13773;48.868;10.730;2022-08-11T11:47:40;2.40;;;1.80;;
25982;SDS011;13773;48.868;10.730;2022-08-11T11:50:08;2.45;;;1.90;;
25982;SDS011;13773;48.868;10.730;2022-08-11T11:52:35;2.05;;;1.70;;
25982;SDS011;13773;48.868;10.730;2022-08-11T11:55:03;3.53;;;1.95;;
25982;SDS011;13773;48.868;10.730;2022-08-11T11:57:30;3.13;;;1.80;;
25982;SDS011;13773;48.868;10.730;2022-08-11T12:00:16;2.75;;;1.90;;
25982;SDS011;13773;48.868;10.730;2022-08-11T12:03:03;2.53;;;1.70;;
25982;SDS011;13773;48.868;10.730;2022-08-11T12:05:35;2.55;;;1.98;;
25982;SDS011;13773;48.868;10.730;2022-08-11T12:08:03;1.80;;;1.70;;
25982;SDS011;13773;48.868;10.730;2022-08-11T12:10:57;2.03;;;1.83;;
25982;SDS011;13773;48.868;10.730;2022-08-11T12:13:45;2.17;;;1.98;;
25982;SDS011;13773;48.868;10.730;2022-08-11T12:16:13;2.05;;;1.85;;
25982;SDS011;13773;48.868;10.730;2022-08-11T12:18:41;2.55;;;1.80;;
25982;SDS011;13773;48.868;10.730;2022-08-11T12:21:09;4.50;;;1.80;;
25982;SDS011;13773;48.868;10.730;2022-08-11T12:23:39;4.72;;;1.83;;
25982;SDS011;13773;48.868;10.730;2022-08-11T12:26:24;2.75;;;2.13;;
25982;SDS011;13773;48.868;10.730;2022-08-11T12:29:09;2.42;;;1.70;;
25982;SDS011;13773;48.868;10.730;2022-08-11T12:31:36;2.65;;;2.15;;
25982;SDS011;13773;48.868;10.730;2022-08-11T12:34:04;2.05;;;1.80;;
25982;SDS011;13773;48.868;10.730;2022-08-11T12:36:36;3.60;;;1.92;;
25982;SDS011;13773;48.868;10.730;2022-08-11T12:39:11;2.38;;;2.00;;
25982;SDS011;13773;48.868;10.730;2022-08-11T12:41:38;3.80;;;1.80;;
25982;SDS011;13773;48.868;10.730;2022-08-11T12:44:24;2.58;;;2.20;;
25982;SDS011;13773;48.868;10.730;2022-08-11T12:47:11;2.30;;;2.10;;
25982;SDS011;13773;48.868;10.730;2022-08-11T12:49:46;2.28;;;2.00;;
25982;SDS011;13773;48.868;10.730;2022-08-11T12:52:43;2.90;;;1.75;;
25982;SDS011;13773;48.868;10.730;2022-08-11T12:55:14;3.28;;;1.90;;
25982;SDS011;13773;48.868;10.730;2022-08-11T12:58:02;2.20;;;2.00;;
25982;SDS011;13773;48.868;10.730;2022-08-11T13:00:44;2.63;;;2.03;;
25982;SDS011;13773;48.868;10.730;2022-08-11T13:03:29;3.53;;;2.03;;
25982;SDS011;13773;48.868;10.730;2022-08-11T13:06:16;2.35;;;2.00;;
25982;SDS011;13773;48.868;10.730;2022-08-11T13:08:44;3.15;;;2.47;;
25982;SDS011;13773;48.868;10.730;2022-08-11T13:11:11;3.47;;;2.00;;
25982;SDS011;13773;48.868;10.730;2022-08-11T13:13:58;2.55;;;2.00;;
25982;SDS011;13773;48.868;10.730;2022-08-11T13:16:28;3.08;;;1.77;;
25982;SDS011;13773;48.868;10.730;2022-08-11T13:18:56;1.92;;;1.80;;
25982;SDS011;13773;48.868;10.730;2022-08-11T13:21:24;5.05;;;2.15;;
25982;SDS011;13773;48.868;10.730;2022-08-11T13:23:52;2.42;;;2.13;;
25982;SDS011;13773;48.868;10.730;2022-08-11T13:26:21;2.72;;;1.80;;
25982;SDS011;13773;48.868;10.730;2022-08-11T13:28:48;2.20;;;2.00;;
25982;SDS011;13773;48.868;10.730;2022-08-11T13:31:15;2.10;;;1.90;;
25982;SDS011;13773;48.868;10.730;2022-08-11T13:33:44;3.03;;;2.03;;
25982;SDS011;13773;48.868;10.730;2022-08-11T13:36:17;2.13;;;1.92;;
25982;SDS011;13773;48.868;10.730;2022-08-11T13:38:45;1.80;;;1.70;;
25982;SDS011;13773;48.868;10.730;2022-08-11T13:41:11;2.35;;;2.15;;
25982;SDS011;13773;48.868;10.730;2022-08-11T13:43:56;2.67;;;1.85;;
25982;SDS011;13773;48.868;10.730;2022-08-11T13:46:23;1.77;;;1.67;;
25982;SDS011;13773;48.868;10.730;2022-08-11T13:48:52;3.90;;;1.98;;
25982;SDS011;13773;48.868;10.730;2022-08-11T13:51:20;3.67;;;2.05;;
25982;SDS011;13773;48.868;10.730;2022-08-11T13:56:25;3.15;;;2.05;;
25982;SDS011;13773;48.868;10.730;2022-08-11T13:58:51;2.97;;;1.90;;
25982;SDS011;13773;48.868;10.730;2022-08-11T14:01:19;3.85;;;1.80;;
25982;SDS011;13773;48.868;10.730;2022-08-11T14:03:46;2.22;;;1.67;;
25982;SDS011;13773;48.868;10.730;2022-08-11T14:06:16;2.97;;;2.00;;
25982;SDS011;13773;48.868;10.730;2022-08-11T14:08:43;3.58;;;1.92;;
25982;SDS011;13773;48.868;10.730;2022-08-11T14:11:10;2.35;;;1.90;;
25982;SDS011;13773;48.868;10.730;2022-08-11T14:13:57;3.90;;;1.90;;
25982;SDS011;13773;48.868;10.730;2022-08-11T14:16:28;7.32;;;2.38;;
25982;SDS011;13773;48.868;10.730;2022-08-11T14:18:59;2.90;;;2.00;;
25982;SDS011;13773;48.868;10.730;2022-08-11T14:21:29;2.53;;;2.00;;
25982;SDS011;13773;48.868;10.730;2022-08-11T14:24:17;3.58;;;1.90;;
25982;SDS011;13773;48.868;10.730;2022-08-11T14:26:45;3.50;;;2.17;;
25982;SDS011;13773;48.868;10.730;2022-08-11T14:29:14;2.42;;;1.98;;
25982;SDS011;13773;48.868;10.730;2022-08-11T14:31:48;4.25;;;2.25;;
25982;SDS011;13773;48.868;10.730;2022-08-11T14:34:16;3.38;;;2.10;;
25982;SDS011;13773;48.868;10.730;2022-08-11T14:36:46;1.90;;;1.80;;
25982;SDS011;13773;48.868;10.730;2022-08-11T14:39:17;4.28;;;1.90;;
25982;SDS011;13773;48.868;10.730;2022-08-11T14:41:58;2.17;;;1.98;;
25982;SDS011;13773;48.868;10.730;2022-08-11T14:44:49;2.85;;;1.83;;
25982;SDS011;13773;48.868;10.730;2022-08-11T14:47:28;3.50;;;2.00;;
25982;SDS011;13773;48.868;10.730;2022-08-11T14:50:05;3.53;;;2.03;;
25982;SDS011;13773;48.868;10.730;2022-08-11T14:52:35;2.63;;;2.10;;
25982;SDS011;13773;48.868;10.730;2022-08-11T14:55:01;2.72;;;2.35;;
25982;SDS011;13773;48.868;10.730;2022-08-11T14:57:46;2.35;;;2.15;;
25982;SDS011;13773;48.868;10.730;2022-08-11T15:00:13;3.47;;;1.80;;
25982;SDS011;13773;48.868;10.730;2022-08-11T15:02:42;2.60;;;1.98;;
25982;SDS011;13773;48.868;10.730;2022-08-11T15:05:30;2.05;;;1.85;;
25982;SDS011;13773;48.868;10.730;2022-08-11T15:07:57;2.40;;;1.80;;
25982;SDS011;13773;48.868;10.730;2022-08-11T15:10:23;4.05;;;1.75;;
25982;SDS011;13773;48.868;10.730;2022-08-11T15:12:50;2.28;;;2.08;;
25982;SDS011;13773;48.868;10.730;2022-08-11T15:15:16;3.78;;;2.20;;
25982;SDS011;13773;48.868;10.730;2022-08-11T15:18:02;2.03;;;1.92;;
25982;SDS011;13773;48.868;10.730;2022-08-11T15:20:30;1.92;;;1.83;;
25982;SDS011;13773;48.868;10.730;2022-08-11T15:23:16;2.20;;;2.00;;
25982;SDS011;13773;48.868;10.730;2022-08-11T15:26:02;2.45;;;1.92;;
25982;SDS011;13773;48.868;10.730;2022-08-11T15:28:36;2.83;;;2.03;;
25982;SDS011;13773;48.868;10.730;2022-08-11T15:31:25;3.42;;;1.90;;
25982;SDS011;13773;48.868;10.730;2022-08-11T15:34:13;2.25;;;2.05;;
25982;SDS011;13773;48.868;10.730;2022-08-11T15:37:02;3.97;;;1.80;;
25982;SDS011;13773;48.868;10.730;2022-08-11T15:39:51;3.30;;;2.00;;
25982;SDS011;13773;48.868;10.730;2022-08-11T15:43:15;2.40;;;2.20;;
25982;SDS011;13773;48.868;10.730;2022-08-11T15:46:02;3.40;;;2.00;;
25982;SDS011;13773;48.868;10.730;2022-08-11T15:48:38;2.30;;;1.90;;
25982;SDS011;13773;48.868;10.730;2022-08-11T15:51:13;2.83;;;1.98;;
25982;SDS011;13773;48.868;10.730;2022-08-11T15:53:51;2.67;;;1.90;;
25982;SDS011;13773;48.868;10.730;2022-08-11T15:56:19;3.10;;;2.05;;
25982;SDS011;13773;48.868;10.730;2022-08-11T15:58:47;3.85;;;1.75;;
25982;SDS011;13773;48.868;10.730;2022-08-11T16:01:39;3.15;;;1.83;;
25982;SDS011;13773;48.868;10.730;2022-08-11T16:04:27;2.58;;;1.80;;
25982;SDS011;13773;48.868;10.730;2022-08-11T16:07:02;2.10;;;1.63;;
25982;SDS011;13773;48.868;10.730;2022-08-11T16:09:35;2.28;;;1.70;;
25982;SDS011;13773;48.868;10.730;2022-08-11T16:12:20;1.77;;;1.67;;
25982;SDS011;13773;48.868;10.730;2022-08-11T16:14:50;2.05;;;1.85;;
25982;SDS011;13773;48.868;10.730;2022-08-11T16:17:41;2.55;;;1.70;;
25982;SDS011;13773;48.868;10.730;2022-08-11T16:20:10;2.92;;;1.80;;
25982;SDS011;13773;48.868;10.730;2022-08-11T16:22:38;5.00;;;1.75;;
25982;SDS011;13773;48.868;10.730;2022-08-11T16:25:11;2.42;;;1.77;;
25982;SDS011;13773;48.868;10.730;2022-08-11T16:27:46;4.93;;;1.98;;
25982;SDS011;13773;48.868;10.730;2022-08-11T16:30:13;3.90;;;1.50;;
25982;SDS011;13773;48.868;10.730;2022-08-11T16:32:48;2.95;;;1.50;;
25982;SDS011;13773;48.868;10.730;2022-08-11T16:35:17;6.07;;;1.73;;
25982;SDS011;13773;48.868;10.730;2022-08-11T16:38:03;4.22;;;1.73;;
25982;SDS011;13773;48.868;10.730;2022-08-11T16:40:50;4.45;;;2.20;;
25982;SDS011;13773;48.868;10.730;2022-08-11T16:43:18;2.85;;;1.55;;
25982;SDS011;13773;48.868;10.730;2022-08-11T16:46:06;2.47;;;1.60;;
25982;SDS011;13773;48.868;10.730;2022-08-11T16:48:52;2.65;;;1.52;;
25982;SDS011;13773;48.868;10.730;2022-08-11T16:51:19;2.47;;;1.90;;
25982;SDS011;13773;48.868;10.730;2022-08-11T16:53:46;5.13;;;1.90;;
25982;SDS011;13773;48.868;10.730;2022-08-11T16:56:14;4.35;;;1.73;;
25982;SDS011;13773;48.868;10.730;2022-08-11T16:58:44;2.90;;;1.80;;
25982;SDS011;13773;48.868;10.730;2022-08-11T17:01:32;3.88;;;2.20;;
25982;SDS011;13773;48.868;10.730;2022-08-11T17:04:01;1.92;;;1.83;;
25982;SDS011;13773;48.868;10.730;2022-08-11T17:06:58;2.20;;;2.00;;
25982;SDS011;13773;48.868;10.730;2022-08-11T17:09:42;2.08;;;1.70;;
25982;SDS011;13773;48.868;10.730;2022-08-11T17:12:31;2.08;;;1.80;;
25982;SDS011;13773;48.868;10.730;2022-08-11T17:15:20;4.15;;;1.83;;
25982;SDS011;13773;48.868;10.730;2022-08-11T17:18:06;2.95;;;1.60;;
25982;SDS011;13773;48.868;10.730;2022-08-11T17:20:34;1.50;;;1.40;;
25982;SDS011;13773;48.868;10.730;2022-08-11T17:23:02;1.73;;;1.63;;
25982;SDS011;13773;48.868;10.730;2022-08-11T17:25:49;2.55;;;1.40;;
25982;SDS011;13773;48.868;10.730;2022-08-11T17:28:16;2.13;;;1.50;;
25982;SDS011;13773;48.868;10.730;2022-08-11T17:30:44;2.75;;;1.40;;
25982;SDS011;13773;48.868;10.730;2022-08-11T17:33:29;2.13;;;1.40;;
25982;SDS011;13773;48.868;10.730;2022-08-11T17:36:15;8.50;;;2.00;;
25982;SDS011;13773;48.868;10.730;2022-08-11T17:38:44;3.05;;;1.95;;
25982;SDS011;13773;48.868;10.730;2022-08-11T17:41:13;1.95;;;1.60;;
25982;SDS011;13773;48.868;10.730;2022-08-11T17:43:58;1.75;;;1.30;;
25982;SDS011;13773;48.868;10.730;2022-08-11T17:46:44;1.80;;;1.70;;
25982;SDS011;13773;48.868;10.730;2022-08-11T17:49:30;1.73;;;1.50;;
25982;SDS011;13773;48.868;10.730;2022-08-11T17:52:02;1.90;;;1.80;;
25982;SDS011;13773;48.868;10.730;2022-08-11T17:54:51;3.88;;;1.83;;
25982;SDS011;13773;48.868;10.730;2022-08-11T17:57:38;2.22;;;1.80;;
25982;SDS011;13773;48.868;10.730;2022-08-11T18:00:23;2.65;;;1.80;;
25982;SDS011;13773;48.868;10.730;2022-08-11T18:02:50;2.45;;;1.40;;
25982;SDS011;13773;48.868;10.730;2022-08-11T18:05:36;2.15;;;1.50;;
25982;SDS011;13773;48.868;10.730;2022-08-11T18:08:05;2.90;;;1.48;;
25982;SDS011;13773;48.868;10.730;2022-08-11T18:10:51;2.17;;;1.55;;
25982;SDS011;13773;48.868;10.730;2022-08-11T18:13:36;3.20;;;1.65;;
25982;SDS011;13773;48.868;10.730;2022-08-11T18:16:23;2.25;;;1.48;;
25982;SDS011;13773;48.868;10.730;2022-08-11T18:19:08;3.22;;;1.67;;
25982;SDS011;13773;48.868;10.730;2022-08-11T18:21:54;1.98;;;1.70;;
25982;SDS011;13773;48.868;10.730;2022-08-11T18:24:47;3.03;;;1.58;;
25982;SDS011;13773;48.868;10.730;2022-08-11T18:27:35;2.90;;;1.73;;
25982;SDS011;13773;48.868;10.730;2022-08-11T18:30:23;1.97;;;1.60;;
25982;SDS011;13773;48.868;10.730;2022-08-11T18:33:09;3.40;;;1.70;;
25982;SDS011;13773;48.868;10.730;2022-08-11T18:35:57;1.63;;;1.53;;
25982;SDS011;13773;48.868;10.730;2022-08-11T18:38:43;2.97;;;1.60;;
25982;SDS011;13773;48.868;10.730;2022-08-11T18:41:30;2.20;;;2.00;;
25982;SDS011;13773;48.868;10.730;2022-08-11T18:44:18;1.90;;;1.50;;
25982;SDS011;13773;48.868;10.730;2022-08-11T18:47:07;3.67;;;1.83;;
25982;SDS011;13773;48.868;10.730;2022-08-11T18:49:55;1.83;;;1.73;;
25982;SDS011;13773;48.868;10.730;2022-08-11T18:52:44;1.70;;;1.60;;
25982;SDS011;13773;48.868;10.730;2022-08-11T18:55:33;2.77;;;1.70;;
25982;SDS011;13773;48.868;10.730;2022-08-11T18:58:20;4.20;;;2.07;;
25982;SDS011;13773;48.868;10.730;2022-08-11T19:01:09;2.87;;;1.80;;
25982;SDS011;13773;48.868;10.730;2022-08-11T19:03:55;2.00;;;1.80;;
25982;SDS011;13773;48.868;10.730;2022-08-11T19:06:41;3.37;;;1.70;;
25982;SDS011;13773;48.868;10.730;2022-08-11T19:09:26;3.13;;;1.50;;
25982;SDS011;13773;48.868;10.730;2022-08-11T19:12:12;1.60;;;1.50;;
25982;SDS011;13773;48.868;10.730;2022-08-11T19:14:58;2.13;;;1.90;;
25982;SDS011;13773;48.868;10.730;2022-08-11T19:17:45;4.87;;;1.70;;
25982;SDS011;13773;48.868;10.730;2022-08-11T19:20:30;3.20;;;1.90;;
25982;SDS011;13773;48.868;10.730;2022-08-11T19:23:17;2.83;;;1.70;;